Time;durP1;ratioP1;P1;durP2;ratioP2;P2;SDS_P1;SDS_P2;PMS_P1;PMS_P2;Temp;Humidity;BMP_temperature;BMP_pressure;BME280_temperature;BME280_humidity;BME280_pressure;Samples;Min_cycle;Max_cycle;Signal;HPM_P1;HPM_P2
2022/05/30 00:00:23;;;;;;;;;;;11.70;83.80;;;;;;5037176;28;19936;-81
2022/05/30 00:02:50;;;;;;;;;;;11.70;83.80;;;;;;5035671;28;19991;-80
2022/05/30 00:05:18;;;;;;;;;;;11.70;83.70;;;;;;5042411;28;19925;-80
2022/05/30 00:07:45;;;;;;;;;;;11.60;83.60;;;;;;5037250;28;19929;-80
2022/05/30 00:10:12;;;;;;;;;;;11.60;83.60;;;;;;5028931;28;19928;-80
2022/05/30 00:12:41;;;;;;;;;;;11.60;83.60;;;;;;5030929;28;19956;-80
2022/05/30 00:15:10;;;;;;;;;;;11.50;83.90;;;;;;5037719;28;19960;-80
2022/05/30 00:17:37;;;;;;;;;;;11.50;83.60;;;;;;5022574;28;19931;-79
2022/05/30 00:20:05;;;;;;;;;;;11.50;83.50;;;;;;5033027;28;19940;-79
2022/05/30 00:22:32;;;;;;;;;;;11.50;83.50;;;;;;5016209;28;19929;-80
2022/05/30 00:24:59;;;;;;;;;;;11.40;83.50;;;;;;5034653;28;19940;-79
2022/05/30 00:27:26;;;;;;;;;;;11.40;83.50;;;;;;5034648;28;19944;-80
2022/05/30 00:29:54;;;;;;;;;;;11.40;83.40;;;;;;5041759;28;20042;-80
2022/05/30 00:32:21;;;;;;;;;;;11.40;83.40;;;;;;5020451;28;19933;-79
2022/05/30 00:34:49;;;;;;;;;;;11.30;83.30;;;;;;5026017;28;19940;-80
2022/05/30 00:37:16;;;;;;;;;;;11.30;83.40;;;;;;5015842;28;19932;-79
2022/05/30 00:39:43;;;;;;;;;;;11.30;83.40;;;;;;5018050;28;19929;-81
2022/05/30 00:42:13;;;;;;;;;;;11.30;83.20;;;;;;5016121;28;20391;-80
2022/05/30 00:44:40;;;;;;;;;;;11.20;83.20;;;;;;5033218;28;19929;-80
2022/05/30 00:47:08;;;;;;;;;;;11.20;83.20;;;;;;5039150;28;19937;-80
2022/05/30 00:49:36;;;;;;;;;;;11.20;83.30;;;;;;5021667;28;20312;-78
2022/05/30 00:52:05;;;;;;;;;;;11.20;83.40;;;;;;5038453;28;19943;-80
2022/05/30 00:54:35;;;;;;;;;;;11.20;83.10;;;;;;5041214;28;19928;-80
2022/05/30 00:57:20;;;;;;;;;;;11.10;83.00;;;;;;5039396;28;19932;-80
2022/05/30 00:59:48;;;;;;;;;;;11.10;83.00;;;;;;5042274;28;19935;-81
2022/05/30 01:02:17;;;;;;;;;;;11.00;82.70;;;;;;5041745;28;19924;-80
2022/05/30 01:07:28;;;;;;;;;;;10.70;83.50;;;;;;5035712;28;19921;-80
2022/05/30 01:09:56;;;;;;;;;;;10.60;83.50;;;;;;5014936;28;20387;-80
2022/05/30 01:12:36;;;;;;;;;;;10.60;83.80;;;;;;5013605;28;19982;-80
2022/05/30 01:15:04;;;;;;;;;;;10.50;83.80;;;;;;5031902;28;19939;-80
2022/05/30 01:17:33;;;;;;;;;;;10.50;84.00;;;;;;5038901;28;19925;-80
2022/05/30 01:20:01;;;;;;;;;;;10.50;84.10;;;;;;5033210;28;19929;-80
2022/05/30 01:22:39;;;;;;;;;;;10.40;84.10;;;;;;5013462;28;19951;-80
2022/05/30 01:25:12;;;;;;;;;;;10.40;84.30;;;;;;5033442;28;20441;-79
2022/05/30 01:28:03;;;;;;;;;;;10.40;84.30;;;;;;5017743;28;19968;-79
2022/05/30 01:30:33;;;;;;;;;;;10.30;84.20;;;;;;5036431;28;20128;-80
2022/05/30 01:33:00;;;;;;;;;;;10.30;84.30;;;;;;5016595;28;20074;-79
2022/05/30 01:35:29;;;;;;;;;;;10.30;84.40;;;;;;5018708;28;19952;-80
2022/05/30 01:38:00;;;;;;;;;;;10.30;84.60;;;;;;5015293;28;19939;-80
2022/05/30 01:40:28;;;;;;;;;;;10.30;84.50;;;;;;5086451;22;19971;-77
2022/05/30 01:42:56;;;;;;;;;;;10.20;84.60;;;;;;5046631;28;22503;-78
2022/05/30 01:45:24;;;;;;;;;;;10.20;84.70;;;;;;5044871;28;19933;-79
2022/05/30 01:47:53;;;;;;;;;;;10.20;84.70;;;;;;5032158;28;19935;-80
2022/05/30 01:50:21;;;;;;;;;;;10.10;84.60;;;;;;5035763;28;19931;-79
2022/05/30 01:52:48;;;;;;;;;;;10.10;84.80;;;;;;5033290;28;19960;-80
2022/05/30 01:55:22;;;;;;;;;;;10.10;84.80;;;;;;5035789;28;19925;-79
2022/05/30 01:58:00;;;;;;;;;;;10.10;84.80;;;;;;5037455;28;20430;-80
2022/05/30 02:00:37;;;;;;;;;;;10.10;84.70;;;;;;5039022;28;19933;-79
2022/05/30 02:03:06;;;;;;;;;;;10.10;84.50;;;;;;5032085;28;20410;-80
2022/05/30 02:05:33;;;;;;;;;;;10.00;84.50;;;;;;5036287;28;19987;-80
2022/05/30 02:08:01;;;;;;;;;;;10.00;84.60;;;;;;5048549;28;19925;-80
2022/05/30 02:10:30;;;;;;;;;;;9.90;85.60;;;;;;5035083;28;20020;-79
2022/05/30 02:12:59;;;;;;;;;;;9.80;85.60;;;;;;5030869;28;20405;-80
2022/05/30 02:18:37;;;;;;;;;;;9.80;85.80;;;;;;5048420;28;19947;-80
2022/05/30 02:21:04;;;;;;;;;;;9.80;85.90;;;;;;5026796;28;19932;-79
2022/05/30 02:23:31;;;;;;;;;;;9.80;85.80;;;;;;5028287;28;19956;-80
2022/05/30 02:25:58;;;;;;;;;;;9.80;85.90;;;;;;5029549;28;19947;-79
2022/05/30 02:28:26;;;;;;;;;;;9.70;85.80;;;;;;5035419;28;19933;-80
2022/05/30 02:30:53;;;;;;;;;;;9.70;85.70;;;;;;5030880;28;19925;-80
2022/05/30 02:38:51;;;;;;;;;;;9.70;85.80;;;;;;5038065;28;19929;-79
2022/05/30 02:41:37;;;;;;;;;;;9.70;85.80;;;;;;5032631;28;19936;-80
2022/05/30 02:44:12;;;;;;;;;;;9.60;85.80;;;;;;5034622;28;19955;-79
2022/05/30 02:46:40;;;;;;;;;;;9.60;85.70;;;;;;5038381;28;19931;-79
2022/05/30 02:49:08;;;;;;;;;;;9.60;85.90;;;;;;5046498;28;20322;-79
2022/05/30 02:51:36;;;;;;;;;;;9.60;85.70;;;;;;5035620;28;19924;-80
2022/05/30 02:54:06;;;;;;;;;;;9.60;85.70;;;;;;5044867;28;19992;-79
2022/05/30 02:56:53;;;;;;;;;;;9.60;85.80;;;;;;5028398;28;20943;-80
2022/05/30 02:59:21;;;;;;;;;;;9.50;85.80;;;;;;5043588;28;21073;-80
2022/05/30 03:01:57;;;;;;;;;;;9.50;85.80;;;;;;5032155;28;20383;-80
2022/05/30 03:04:24;;;;;;;;;;;9.50;85.90;;;;;;5037894;28;19951;-80
2022/05/30 03:06:53;;;;;;;;;;;9.50;85.90;;;;;;5032681;28;19925;-80
2022/05/30 03:09:20;;;;;;;;;;;9.50;85.90;;;;;;5038966;28;20051;-80
2022/05/30 03:12:16;;;;;;;;;;;9.40;85.80;;;;;;5025719;28;19944;-79
2022/05/30 03:14:43;;;;;;;;;;;9.40;86.00;;;;;;5028731;28;19925;-80
2022/05/30 03:17:11;;;;;;;;;;;9.40;85.90;;;;;;5027280;28;19924;-79
2022/05/30 03:19:41;;;;;;;;;;;9.30;86.00;;;;;;5029460;28;20018;-79
2022/05/30 03:22:10;;;;;;;;;;;9.30;86.10;;;;;;5040738;28;20015;-79
2022/05/30 03:24:56;;;;;;;;;;;9.30;86.20;;;;;;5032396;28;19993;-79
2022/05/30 03:27:23;;;;;;;;;;;9.30;86.10;;;;;;5032230;28;19924;-79
2022/05/30 03:29:50;;;;;;;;;;;9.20;86.00;;;;;;5031811;28;20017;-80
2022/05/30 03:32:17;;;;;;;;;;;9.20;86.10;;;;;;5032249;28;19933;-79
2022/05/30 03:34:45;;;;;;;;;;;9.10;86.00;;;;;;5039272;28;19935;-80
2022/05/30 03:37:13;;;;;;;;;;;9.10;86.00;;;;;;5026109;28;19943;-80
2022/05/30 03:39:49;;;;;;;;;;;9.10;86.90;;;;;;5032909;28;19932;-80
2022/05/30 03:42:22;;;;;;;;;;;9.10;86.30;;;;;;5037658;28;19951;-79
2022/05/30 03:45:00;;;;;;;;;;;9.00;86.20;;;;;;5030942;28;21013;-81
2022/05/30 03:47:27;;;;;;;;;;;9.00;86.10;;;;;;5031045;28;19925;-79
2022/05/30 03:50:00;;;;;;;;;;;9.00;86.20;;;;;;5030151;28;22456;-79
2022/05/30 03:52:28;;;;;;;;;;;8.90;86.10;;;;;;5050492;28;19936;-80
2022/05/30 03:54:56;;;;;;;;;;;8.90;86.20;;;;;;5031008;28;20222;-80
2022/05/30 03:57:23;;;;;;;;;;;8.90;86.40;;;;;;5040943;28;20650;-79
2022/05/30 03:59:50;;;;;;;;;;;8.90;86.10;;;;;;5032229;28;19932;-80
2022/05/30 04:02:18;;;;;;;;;;;8.90;86.20;;;;;;5039003;28;19929;-80
2022/05/30 04:04:45;;;;;;;;;;;8.80;85.90;;;;;;5047039;28;19971;-80
2022/05/30 04:07:12;;;;;;;;;;;8.80;86.80;;;;;;5044460;28;19966;-80
2022/05/30 04:10:18;;;;;;;;;;;8.80;86.70;;;;;;5041516;28;20047;-79
2022/05/30 04:13:05;;;;;;;;;;;8.80;86.60;;;;;;5044822;28;19935;-79
2022/05/30 04:15:50;;;;;;;;;;;8.80;86.60;;;;;;5041838;28;20298;-80
2022/05/30 04:18:17;;;;;;;;;;;8.80;86.50;;;;;;5042468;28;19932;-79
2022/05/30 04:20:46;;;;;;;;;;;8.80;86.50;;;;;;5036507;28;19925;-80
2022/05/30 04:23:13;;;;;;;;;;;8.80;86.50;;;;;;5040467;28;19931;-80
2022/05/30 04:25:50;;;;;;;;;;;8.80;86.50;;;;;;5035542;28;20197;-80
2022/05/30 04:28:19;;;;;;;;;;;8.80;86.50;;;;;;5040481;28;19928;-79
2022/05/30 04:30:55;;;;;;;;;;;8.80;86.40;;;;;;5037046;28;19940;-80
2022/05/30 04:33:22;;;;;;;;;;;8.70;86.40;;;;;;5043069;28;20391;-80
2022/05/30 04:35:49;;;;;;;;;;;8.70;86.40;;;;;;5038132;28;20395;-79
2022/05/30 04:38:16;;;;;;;;;;;8.70;86.50;;;;;;5044701;28;19926;-80
2022/05/30 04:41:04;;;;;;;;;;;8.70;86.50;;;;;;5039952;28;21264;-81
2022/05/30 04:43:51;;;;;;;;;;;8.70;86.60;;;;;;5046249;28;20364;-81
2022/05/30 04:46:50;;;;;;;;;;;8.70;86.80;;;;;;5031587;28;20472;-79
2022/05/30 04:49:17;;;;;;;;;;;8.70;86.80;;;;;;5062486;28;19971;-79
2022/05/30 04:51:44;;;;;;;;;;;8.60;86.90;;;;;;5042987;28;19992;-80
2022/05/30 04:54:11;;;;;;;;;;;8.60;87.10;;;;;;5050343;28;19925;-80
2022/05/30 04:56:58;;;;;;;;;;;8.60;87.20;;;;;;5038450;28;20063;-80
2022/05/30 04:59:28;;;;;;;;;;;8.60;87.40;;;;;;5044548;28;19929;-79
2022/05/30 05:02:01;;;;;;;;;;;8.60;87.30;;;;;;5043810;28;19929;-80
2022/05/30 05:04:30;;;;;;;;;;;8.70;87.30;;;;;;5042523;28;19936;-80
2022/05/30 05:06:57;;;;;;;;;;;8.70;87.30;;;;;;5041357;28;20015;-80
2022/05/30 05:09:26;;;;;;;;;;;8.70;87.50;;;;;;5032380;28;19986;-81
2022/05/30 05:12:13;;;;;;;;;;;8.70;88.10;;;;;;5042553;28;19940;-81
2022/05/30 05:14:55;;;;;;;;;;;8.80;88.90;;;;;;5043249;28;20019;-81
2022/05/30 05:17:40;;;;;;;;;;;8.70;88.60;;;;;;5047512;28;19936;-82
2022/05/30 05:20:11;;;;;;;;;;;8.80;88.60;;;;;;5051217;28;19924;-82
2022/05/30 05:22:38;;;;;;;;;;;8.80;88.40;;;;;;5041099;28;19932;-81
2022/05/30 05:25:06;;;;;;;;;;;8.80;88.30;;;;;;5042683;28;20280;-81
2022/05/30 05:27:43;;;;;;;;;;;8.80;88.70;;;;;;5044665;28;19929;-80
2022/05/30 05:30:12;;;;;;;;;;;8.80;89.70;;;;;;5049537;28;19925;-81
2022/05/30 05:32:42;;;;;;;;;;;8.90;90.00;;;;;;5047370;28;20445;-81
2022/05/30 05:35:09;;;;;;;;;;;9.00;90.30;;;;;;5041382;28;19925;-81
2022/05/30 05:37:41;;;;;;;;;;;9.10;90.40;;;;;;5043164;28;19952;-82
2022/05/30 05:40:27;;;;;;;;;;;9.20;90.50;;;;;;5043239;28;19931;-82
2022/05/30 05:42:56;;;;;;;;;;;9.20;90.70;;;;;;5052404;28;20295;-81
2022/05/30 05:45:23;;;;;;;;;;;9.30;90.70;;;;;;5057717;28;19928;-81
2022/05/30 05:47:50;;;;;;;;;;;9.40;90.80;;;;;;5041559;28;19964;-82
2022/05/30 05:50:18;;;;;;;;;;;9.40;91.00;;;;;;5045383;28;19929;-82
2022/05/30 05:52:45;;;;;;;;;;;9.50;91.00;;;;;;5043610;28;19931;-81
2022/05/30 05:55:16;;;;;;;;;;;9.50;90.90;;;;;;5045230;28;19930;-82
2022/05/30 05:57:44;;;;;;;;;;;9.50;90.90;;;;;;5038398;28;20307;-82
2022/05/30 06:00:13;;;;;;;;;;;9.60;90.90;;;;;;5061758;28;19924;-81
2022/05/30 06:02:45;;;;;;;;;;;9.50;90.90;;;;;;5044046;28;19925;-82
2022/05/30 06:05:14;;;;;;;;;;;9.50;90.90;;;;;;5041539;28;20002;-81
2022/05/30 06:08:03;;;;;;;;;;;9.50;91.10;;;;;;5024551;28;19960;-81
2022/05/30 06:13:36;;;;;;;;;;;9.70;91.30;;;;;;5037244;28;20282;-81
2022/05/30 06:16:08;;;;;;;;;;;9.70;91.30;;;;;;5038104;28;20027;-82
2022/05/30 06:18:46;;;;;;;;;;;9.80;91.50;;;;;;5043239;28;19948;-81
2022/05/30 06:21:13;;;;;;;;;;;9.90;91.60;;;;;;5042645;28;20390;-82
2022/05/30 06:23:46;;;;;;;;;;;10.00;91.20;;;;;;5044144;28;20787;-82
2022/05/30 06:26:32;;;;;;;;;;;10.10;91.30;;;;;;5038812;28;20018;-81
2022/05/30 06:29:17;;;;;;;;;;;10.10;91.30;;;;;;5043982;28;19932;-81
2022/05/30 06:31:46;;;;;;;;;;;10.20;91.40;;;;;;5041342;28;20041;-82
2022/05/30 06:34:14;;;;;;;;;;;10.20;91.60;;;;;;5053716;28;19972;-81
2022/05/30 06:36:44;;;;;;;;;;;10.30;91.70;;;;;;5039160;28;20415;-82
2022/05/30 06:39:11;;;;;;;;;;;10.40;91.80;;;;;;5039623;28;19965;-81
2022/05/30 06:41:42;;;;;;;;;;;10.40;91.80;;;;;;5043649;28;19925;-81
2022/05/30 06:44:10;;;;;;;;;;;10.40;91.90;;;;;;5035481;28;19993;-81
2022/05/30 06:46:57;;;;;;;;;;;10.50;92.00;;;;;;5040891;28;19931;-82
2022/05/30 06:49:43;;;;;;;;;;;10.50;92.10;;;;;;5036698;28;19932;-81
2022/05/30 06:52:13;;;;;;;;;;;10.60;92.00;;;;;;5041387;28;20357;-82
2022/05/30 06:54:40;;;;;;;;;;;10.60;92.00;;;;;;5042329;28;19931;-81
2022/05/30 06:59:53;;;;;;;;;;;10.60;92.10;;;;;;5050749;28;19921;-82
2022/05/30 07:02:22;;;;;;;;;;;10.60;92.20;;;;;;5044465;28;19929;-81
2022/05/30 07:05:04;;;;;;;;;;;10.70;92.30;;;;;;5044398;28;20047;-82
2022/05/30 07:07:58;;;;;;;;;;;10.70;92.30;;;;;;5041600;28;19925;-82
2022/05/30 07:10:44;;;;;;;;;;;10.80;92.40;;;;;;5042752;28;19936;-82
2022/05/30 07:13:16;;;;;;;;;;;10.80;92.40;;;;;;5039085;28;19929;-81
2022/05/30 07:15:48;;;;;;;;;;;10.80;92.40;;;;;;5039559;28;20415;-82
2022/05/30 07:18:21;;;;;;;;;;;10.80;92.50;;;;;;5041583;28;19925;-82
2022/05/30 07:20:55;;;;;;;;;;;10.80;92.40;;;;;;5042576;28;19925;-81
2022/05/30 07:23:28;;;;;;;;;;;10.90;92.50;;;;;;5038931;28;19933;-82
2022/05/30 07:26:31;;;;;;;;;;;10.90;92.60;;;;;;4981267;28;19933;-82
2022/05/30 07:29:16;;;;;;;;;;;10.90;92.60;;;;;;5039856;28;20303;-82
2022/05/30 07:32:03;;;;;;;;;;;10.90;92.60;;;;;;5048233;28;20401;-82
2022/05/30 07:34:50;;;;;;;;;;;11.00;92.70;;;;;;5043204;28;19998;-81
2022/05/30 07:37:52;;;;;;;;;;;11.00;92.60;;;;;;5023156;28;20446;-82
2022/05/30 07:40:33;;;;;;;;;;;11.10;92.60;;;;;;5041852;28;19973;-82
2022/05/30 07:43:29;;;;;;;;;;;11.10;92.50;;;;;;5025725;22;19936;-80
2022/05/30 07:46:20;;;;;;;;;;;11.10;92.50;;;;;;5124837;22;19935;-80
2022/05/30 07:49:22;;;;;;;;;;;11.10;92.50;;;;;;5007273;28;19933;-80
2022/05/30 07:52:19;;;;;;;;;;;11.10;92.50;;;;;;5063210;28;19932;-80
2022/05/30 07:55:06;;;;;;;;;;;11.10;92.40;;;;;;5065671;28;19978;-80
2022/05/30 07:57:55;;;;;;;;;;;11.10;92.50;;;;;;5070852;28;20177;-80
2022/05/30 08:00:27;;;;;;;;;;;11.10;92.30;;;;;;5066037;28;19924;-80
2022/05/30 08:03:00;;;;;;;;;;;11.20;92.40;;;;;;5060375;28;19967;-80
2022/05/30 08:05:31;;;;;;;;;;;11.20;92.30;;;;;;5070610;28;20664;-81
2022/05/30 08:08:25;;;;;;;;;;;11.20;92.40;;;;;;5065513;28;19930;-80
2022/05/30 08:10:53;;;;;;;;;;;11.20;92.30;;;;;;5064562;28;19929;-81
2022/05/30 08:13:22;;;;;;;;;;;11.20;92.20;;;;;;5066512;28;19951;-80
2022/05/30 08:15:59;;;;;;;;;;;11.20;92.20;;;;;;5064698;28;19928;-80
2022/05/30 08:18:29;;;;;;;;;;;11.30;92.10;;;;;;5068231;28;19924;-80
2022/05/30 08:20:59;;;;;;;;;;;11.30;92.10;;;;;;5066158;28;19974;-80
2022/05/30 08:23:28;;;;;;;;;;;11.30;92.10;;;;;;5067469;28;19928;-80
2022/05/30 08:25:59;;;;;;;;;;;11.30;92.00;;;;;;5062048;28;19925;-78
2022/05/30 08:28:29;;;;;;;;;;;11.40;92.00;;;;;;5068322;28;19999;-80
2022/05/30 08:30:56;;;;;;;;;;;11.40;91.90;;;;;;5064407;28;20466;-80
2022/05/30 08:33:41;;;;;;;;;;;11.40;91.80;;;;;;5066392;28;19932;-80
2022/05/30 08:36:22;;;;;;;;;;;11.40;91.90;;;;;;5064505;28;20307;-80
2022/05/30 08:41:46;;;;;;;;;;;11.40;91.80;;;;;;5067346;28;19928;-81
2022/05/30 08:41:47;;;;;;;;;;;11.50;91.90;;;;;;5068808;28;19932;-80
2022/05/30 08:44:37;;;;;;;;;;;11.50;91.80;;;;;;5065103;28;20302;-80
2022/05/30 08:47:37;;;;;;;;;;;11.50;91.80;;;;;;5057070;28;20379;-80
2022/05/30 08:50:08;;;;;;;;;;;11.50;91.60;;;;;;5069871;28;19928;-80
2022/05/30 08:52:43;;;;;;;;;;;11.60;91.50;;;;;;5069771;28;19986;-80
2022/05/30 08:55:19;;;;;;;;;;;11.60;91.50;;;;;;5051181;28;19947;-79
2022/05/30 08:57:54;;;;;;;;;;;11.60;91.40;;;;;;5065756;28;19925;-80
2022/05/30 09:00:26;;;;;;;;;;;11.60;91.40;;;;;;5063457;28;19963;-80
2022/05/30 09:03:34;;;;;;;;;;;11.60;91.40;;;;;;4984207;28;19938;-80
2022/05/30 09:06:04;;;;;;;;;;;11.60;91.30;;;;;;5029236;28;19925;-80
2022/05/30 09:08:33;;;;;;;;;;;11.70;91.20;;;;;;5063931;28;19962;-80
2022/05/30 09:11:25;;;;;;;;;;;11.70;91.10;;;;;;5060962;28;19936;-80
2022/05/30 09:13:56;;;;;;;;;;;11.70;91.00;;;;;;5058845;28;19974;-80
2022/05/30 09:16:34;;;;;;;;;;;11.80;91.10;;;;;;5085489;28;19924;-79
2022/05/30 09:19:08;;;;;;;;;;;11.80;91.10;;;;;;5067644;28;19954;-80
2022/05/30 09:21:36;;;;;;;;;;;11.80;91.10;;;;;;5064967;28;19955;-80
2022/05/30 09:24:03;;;;;;;;;;;11.80;90.90;;;;;;5058515;28;20364;-79
2022/05/30 09:26:34;;;;;;;;;;;11.80;90.80;;;;;;5065378;28;19971;-79
2022/05/30 09:29:15;;;;;;;;;;;11.90;90.80;;;;;;5062531;28;19928;-79
2022/05/30 09:32:06;;;;;;;;;;;11.90;90.70;;;;;;5061559;28;20406;-79
2022/05/30 09:34:56;;;;;;;;;;;12.00;90.60;;;;;;5020103;28;20406;-80
2022/05/30 09:37:41;;;;;;;;;;;11.90;90.60;;;;;;5059717;28;20318;-79
2022/05/30 09:40:11;;;;;;;;;;;11.90;90.50;;;;;;5060371;28;19925;-79
2022/05/30 09:42:50;;;;;;;;;;;12.00;90.50;;;;;;5059370;28;19967;-80
2022/05/30 09:45:26;;;;;;;;;;;12.00;90.30;;;;;;5059255;28;20019;-79
2022/05/30 09:48:06;;;;;;;;;;;12.00;90.10;;;;;;5061971;28;19925;-79
2022/05/30 09:51:12;;;;;;;;;;;12.00;90.10;;;;;;5000233;28;20015;-79
2022/05/30 09:53:42;;;;;;;;;;;12.10;90.00;;;;;;4984087;28;19925;-79
2022/05/30 09:56:10;;;;;;;;;;;12.10;90.00;;;;;;5028979;28;19932;-79
2022/05/30 09:58:43;;;;;;;;;;;12.10;89.80;;;;;;5060964;28;19951;-79
2022/05/30 10:01:49;;;;;;;;;;;12.10;89.80;;;;;;4998670;28;20035;-79
2022/05/30 10:04:19;;;;;;;;;;;12.10;89.60;;;;;;5068446;28;20301;-80
2022/05/30 10:07:09;;;;;;;;;;;12.10;89.70;;;;;;5058233;28;19956;-79
2022/05/30 10:09:52;;;;;;;;;;;12.10;89.50;;;;;;5060396;28;19925;-79
2022/05/30 10:12:31;;;;;;;;;;;12.10;89.50;;;;;;5061704;28;19943;-80
2022/05/30 10:14:59;;;;;;;;;;;12.10;89.30;;;;;;5077351;28;19964;-79
2022/05/30 10:17:35;;;;;;;;;;;12.20;89.10;;;;;;5062740;28;19943;-79
2022/05/30 10:20:11;;;;;;;;;;;12.20;89.20;;;;;;5061540;28;19988;-79
2022/05/30 10:29:41;;;;;;;;;;;12.20;87.90;;;;;;5064289;28;19963;-80
2022/05/30 10:32:27;;;;;;;;;;;12.20;88.50;;;;;;5062325;28;19936;-80
2022/05/30 10:35:07;;;;;;;;;;;12.20;86.10;;;;;;5058069;28;20446;-80
2022/05/30 10:37:42;;;;;;;;;;;12.20;86.30;;;;;;5067774;28;19936;-80
2022/05/30 10:40:12;;;;;;;;;;;12.20;87.20;;;;;;5059146;28;19970;-80
2022/05/30 10:42:43;;;;;;;;;;;12.30;86.90;;;;;;5062047;28;19939;-79
2022/05/30 10:45:14;;;;;;;;;;;12.30;86.70;;;;;;5059493;28;20383;-80
2022/05/30 10:47:45;;;;;;;;;;;12.30;86.10;;;;;;5061876;28;20351;-80
2022/05/30 10:50:16;;;;;;;;;;;12.30;86.20;;;;;;5061607;28;19933;-80
2022/05/30 10:52:45;;;;;;;;;;;12.40;86.00;;;;;;5059176;28;19924;-79
2022/05/30 10:55:18;;;;;;;;;;;12.40;86.00;;;;;;5058480;28;20560;-79
2022/05/30 10:57:46;;;;;;;;;;;12.40;85.20;;;;;;5063075;28;20364;-79
2022/05/30 11:00:15;;;;;;;;;;;12.40;85.30;;;;;;5080892;28;20311;-80
2022/05/30 11:02:58;;;;;;;;;;;12.40;84.90;;;;;;5061352;28;19951;-79
2022/05/30 11:05:26;;;;;;;;;;;12.40;85.00;;;;;;5060252;28;19982;-80
2022/05/30 11:07:58;;;;;;;;;;;12.40;85.10;;;;;;5062909;28;19937;-80
2022/05/30 11:10:30;;;;;;;;;;;12.50;84.70;;;;;;5062806;28;19925;-80
2022/05/30 11:13:01;;;;;;;;;;;12.50;84.90;;;;;;5053740;28;20417;-80
2022/05/30 11:15:31;;;;;;;;;;;12.50;85.00;;;;;;5063611;28;20386;-80
2022/05/30 11:18:24;;;;;;;;;;;12.50;85.00;;;;;;5060117;28;20468;-81
2022/05/30 11:21:18;;;;;;;;;;;12.60;84.70;;;;;;5033272;28;19954;-82
2022/05/30 11:23:45;;;;;;;;;;;12.60;84.90;;;;;;5063534;28;19924;-82
2022/05/30 11:26:18;;;;;;;;;;;12.60;85.00;;;;;;5082522;28;19925;-85
2022/05/30 11:28:55;;;;;;;;;;;12.60;85.50;;;;;;5064586;28;19931;-82
2022/05/30 11:31:24;;;;;;;;;;;12.70;85.90;;;;;;5069086;28;20019;-84
2022/05/30 11:34:01;;;;;;;;;;;12.70;86.10;;;;;;5067316;28;19991;-84
2022/05/30 11:36:37;;;;;;;;;;;12.70;86.10;;;;;;5073131;28;19924;-82
2022/05/30 11:39:08;;;;;;;;;;;12.80;86.20;;;;;;5069245;28;20314;-82
2022/05/30 11:41:43;;;;;;;;;;;12.70;86.00;;;;;;5067841;28;20025;-82
2022/05/30 11:44:14;;;;;;;;;;;12.80;85.90;;;;;;5071577;28;19935;-84
2022/05/30 11:46:45;;;;;;;;;;;12.80;85.50;;;;;;5069998;28;19932;-83
2022/05/30 11:49:12;;;;;;;;;;;;;;;;;;5093686;28;19996;-84
2022/05/30 11:51:46;;;;;;;;;;;12.90;84.60;;;;;;5074502;28;19995;-85
2022/05/30 11:54:25;;;;;;;;;;;12.90;84.60;;;;;;5089359;28;20682;-84
2022/05/30 11:56:57;;;;;;;;;;;13.00;84.80;;;;;;5079199;28;19994;-83
2022/05/30 11:59:41;;;;;;;;;;;13.00;84.50;;;;;;5071143;28;19925;-84
2022/05/30 12:02:13;;;;;;;;;;;13.10;85.30;;;;;;5075367;28;19970;-84
2022/05/30 12:04:52;;;;;;;;;;;13.00;84.80;;;;;;5092472;28;20458;-84
2022/05/30 12:07:29;;;;;;;;;;;13.10;85.10;;;;;;5074429;28;19932;-83
2022/05/30 12:10:14;;;;;;;;;;;13.10;85.70;;;;;;5065841;28;20055;-83
2022/05/30 12:12:48;;;;;;;;;;;13.10;86.10;;;;;;5073935;28;19931;-83
2022/05/30 12:15:30;;;;;;;;;;;13.20;86.10;;;;;;5073417;28;19924;-84
2022/05/30 12:23:52;;;;;;;;;;;13.30;85.80;;;;;;5075174;28;19942;-83
2022/05/30 12:26:34;;;;;;;;;;;13.40;86.20;;;;;;5075190;28;19936;-83
2022/05/30 12:29:01;;;;;;;;;;;13.40;86.00;;;;;;5067738;28;21521;-83
2022/05/30 12:31:35;;;;;;;;;;;13.50;86.20;;;;;;5063703;28;19933;-84
2022/05/30 12:34:02;;;;;;;;;;;13.50;86.60;;;;;;5055872;28;19928;-84
2022/05/30 12:36:39;;;;;;;;;;;13.50;86.80;;;;;;5065035;28;19935;-84
2022/05/30 12:39:32;;;;;;;;;;;13.50;87.40;;;;;;5065877;28;19925;-85
2022/05/30 12:41:59;;;;;;;;;;;13.50;87.70;;;;;;5067220;28;19932;-82
2022/05/30 12:44:46;;;;;;;;;;;13.50;87.70;;;;;;5071284;28;19932;-85
2022/05/30 12:47:15;;;;;;;;;;;13.60;87.80;;;;;;5070006;28;19987;-83
2022/05/30 12:49:42;;;;;;;;;;;13.60;87.10;;;;;;5077577;28;19937;-82
2022/05/30 12:52:17;;;;;;;;;;;13.60;86.80;;;;;;5068927;28;19951;-82
2022/05/30 12:54:46;;;;;;;;;;;13.80;87.10;;;;;;5077197;28;19933;-80
2022/05/30 12:57:34;;;;;;;;;;;13.80;86.90;;;;;;5071159;28;19925;-82
2022/05/30 13:00:22;;;;;;;;;;;13.90;87.00;;;;;;5067540;28;20501;-82
2022/05/30 13:03:09;;;;;;;;;;;14.00;87.10;;;;;;5073801;28;19941;-82
2022/05/30 13:05:47;;;;;;;;;;;14.00;87.10;;;;;;5068062;28;19932;-84
2022/05/30 13:08:32;;;;;;;;;;;14.10;86.80;;;;;;5078056;28;19924;-82
2022/05/30 13:11:01;;;;;;;;;;;14.10;86.40;;;;;;5083115;28;19933;-82
2022/05/30 13:13:30;;;;;;;;;;;14.20;86.90;;;;;;5079165;28;19932;-83
2022/05/30 13:16:01;;;;;;;;;;;14.20;86.80;;;;;;5074999;28;19925;-82
2022/05/30 13:18:30;;;;;;;;;;;14.30;86.30;;;;;;5075386;28;19933;-82
2022/05/30 13:21:00;;;;;;;;;;;14.30;85.80;;;;;;5071647;28;19962;-82
2022/05/30 13:23:28;;;;;;;;;;;14.40;85.70;;;;;;5076616;28;19999;-82
2022/05/30 13:25:56;;;;;;;;;;;14.40;85.50;;;;;;5075087;28;19928;-82
2022/05/30 13:28:25;;;;;;;;;;;14.50;86.00;;;;;;5071207;28;19933;-83
2022/05/30 13:30:53;;;;;;;;;;;14.60;86.80;;;;;;5074738;28;19925;-83
2022/05/30 13:33:25;;;;;;;;;;;14.70;86.70;;;;;;5073608;28;19990;-82
2022/05/30 13:35:52;;;;;;;;;;;14.70;86.90;;;;;;5076244;28;19924;-82
2022/05/30 13:38:21;;;;;;;;;;;14.80;87.50;;;;;;5074595;28;19928;-82
2022/05/30 13:40:49;;;;;;;;;;;14.90;87.50;;;;;;5069901;28;19925;-82
2022/05/30 13:43:19;;;;;;;;;;;14.90;87.20;;;;;;5068934;28;19959;-82
2022/05/30 13:45:47;;;;;;;;;;;15.00;87.40;;;;;;5144598;22;20316;-84
2022/05/30 13:48:15;;;;;;;;;;;15.10;87.50;;;;;;5100762;28;20018;-84
2022/05/30 13:50:45;;;;;;;;;;;15.10;87.50;;;;;;5096389;28;19935;-84
2022/05/30 13:53:13;;;;;;;;;;;15.20;87.50;;;;;;5092445;27;20290;-84
2022/05/30 13:55:41;;;;;;;;;;;15.20;87.50;;;;;;5071162;28;20424;-84
2022/05/30 13:58:08;;;;;;;;;;;15.30;88.30;;;;;;5073344;28;19928;-83
2022/05/30 14:00:36;;;;;;;;;;;15.40;87.90;;;;;;5082096;28;20448;-84
2022/05/30 14:03:05;;;;;;;;;;;15.50;88.30;;;;;;5075809;28;20035;-84
2022/05/30 14:05:36;;;;;;;;;;;15.50;87.80;;;;;;5082562;28;19931;-84
2022/05/30 14:08:05;;;;;;;;;;;15.60;87.60;;;;;;5073636;28;20402;-84
2022/05/30 14:10:38;;;;;;;;;;;15.70;87.40;;;;;;5075035;28;19930;-83
2022/05/30 14:13:05;;;;;;;;;;;15.80;86.30;;;;;;5080799;28;19925;-83
2022/05/30 14:15:33;;;;;;;;;;;15.90;85.50;;;;;;5071034;28;20448;-84
2022/05/30 14:18:15;;;;;;;;;;;15.90;84.90;;;;;;5080772;28;20010;-83
2022/05/30 14:20:48;;;;;;;;;;;16.00;84.80;;;;;;5075359;28;19994;-83
2022/05/30 14:23:16;;;;;;;;;;;16.10;86.20;;;;;;5080312;27;20467;-83
2022/05/30 14:25:44;;;;;;;;;;;16.20;87.20;;;;;;5066705;28;19924;-83
2022/05/30 14:28:13;;;;;;;;;;;16.20;87.60;;;;;;5061220;28;19928;-83
2022/05/30 14:30:40;;;;;;;;;;;16.30;87.40;;;;;;5071065;28;19971;-83
2022/05/30 14:33:09;;;;;;;;;;;16.30;87.20;;;;;;5073308;28;20378;-83
2022/05/30 14:35:37;;;;;;;;;;;16.40;85.40;;;;;;5079756;28;21097;-83
2022/05/30 14:38:07;;;;;;;;;;;16.40;86.30;;;;;;5065216;28;19932;-81
2022/05/30 14:40:36;;;;;;;;;;;16.40;87.30;;;;;;5072939;28;19935;-82
2022/05/30 14:43:21;;;;;;;;;;;16.50;84.90;;;;;;5080081;28;19931;-81
2022/05/30 14:46:00;;;;;;;;;;;16.50;84.90;;;;;;5067489;28;19967;-80
2022/05/30 14:48:26;;;;;;;;;;;16.60;84.40;;;;;;5071611;28;20394;-81
2022/05/30 14:50:56;;;;;;;;;;;16.70;84.10;;;;;;5079448;28;19981;-80
2022/05/30 14:53:28;;;;;;;;;;;16.70;84.50;;;;;;5076445;28;19938;-79
2022/05/30 14:55:56;;;;;;;;;;;16.70;85.20;;;;;;5071891;28;20427;-80
2022/05/30 14:58:26;;;;;;;;;;;16.80;85.60;;;;;;5070330;28;19978;-81
2022/05/30 15:00:54;;;;;;;;;;;16.80;85.80;;;;;;5077924;28;19942;-82
2022/05/30 15:06:08;;;;;;;;;;;16.80;85.90;;;;;;5076918;28;20286;-82
2022/05/30 15:08:37;;;;;;;;;;;16.90;84.90;;;;;;5077327;28;19928;-82
2022/05/30 15:11:15;;;;;;;;;;;17.00;84.10;;;;;;5079904;28;19952;-82
2022/05/30 15:13:43;;;;;;;;;;;17.10;83.00;;;;;;5078172;28;19932;-82
2022/05/30 15:16:10;;;;;;;;;;;17.10;83.60;;;;;;5075896;28;20350;-81
2022/05/30 15:18:37;;;;;;;;;;;17.20;84.50;;;;;;5079452;28;19924;-81
2022/05/30 15:21:05;;;;;;;;;;;17.20;83.00;;;;;;5080376;28;19967;-81
2022/05/30 15:23:32;;;;;;;;;;;17.30;84.40;;;;;;5074766;28;19950;-81
2022/05/30 15:26:00;;;;;;;;;;;17.30;84.90;;;;;;5069163;28;19924;-82
2022/05/30 15:28:26;;;;;;;;;;;17.40;85.30;;;;;;5066367;28;20019;-80
2022/05/30 15:30:53;;;;;;;;;;;17.40;85.10;;;;;;5077114;28;19959;-80